sensor_id;sensor_type;location;lat;lon;timestamp;pressure;altitude;pressure_sealevel;temperature;humidity
51781;BME280;37844;57.126;24.288;2023-01-31T00:01:20;98862.34;;;1.68;100.00
51781;BME280;37844;57.126;24.288;2023-01-31T00:03:47;98858.88;;;1.65;100.00
51781;BME280;37844;57.126;24.288;2023-01-31T00:06:20;98864.94;;;1.72;100.00
51781;BME280;37844;57.126;24.288;2023-01-31T00:08:47;98868.34;;;1.74;100.00
51781;BME280;37844;57.126;24.288;2023-01-31T00:11:14;98873.41;;;1.72;100.00
51781;BME280;37844;57.126;24.288;2023-01-31T00:13:41;98862.53;;;1.79;100.00
51781;BME280;37844;57.126;24.288;2023-01-31T00:16:07;98887.84;;;1.75;100.00
51781;BME280;37844;57.126;24.288;2023-01-31T00:18:34;98880.88;;;1.64;100.00
51781;BME280;37844;57.126;24.288;2023-01-31T00:21:14;98882.59;;;1.65;100.00
51781;BME280;37844;57.126;24.288;2023-01-31T00:23:41;98880.97;;;1.70;100.00
51781;BME280;37844;57.126;24.288;2023-01-31T00:26:19;98906.50;;;1.77;100.00
51781;BME280;37844;57.126;24.288;2023-01-31T00:28:46;98892.16;;;1.80;100.00
51781;BME280;37844;57.126;24.288;2023-01-31T00:31:13;98904.22;;;1.92;100.00
51781;BME280;37844;57.126;24.288;2023-01-31T00:33:40;98911.00;;;1.90;100.00
51781;BME280;37844;57.126;24.288;2023-01-31T00:36:40;98911.78;;;1.89;100.00
51781;BME280;37844;57.126;24.288;2023-01-31T00:39:00;98911.00;;;1.90;100.00
51781;BME280;37844;57.126;24.288;2023-01-31T00:41:27;98928.06;;;1.97;100.00
51781;BME280;37844;57.126;24.288;2023-01-31T00:43:53;98927.22;;;1.98;100.00
51781;BME280;37844;57.126;24.288;2023-01-31T00:46:19;98932.28;;;1.98;100.00
51781;BME280;37844;57.126;24.288;2023-01-31T00:48:45;98941.69;;;2.04;100.00
51781;BME280;37844;57.126;24.288;2023-01-31T00:51:11;98951.00;;;2.03;100.00
51781;BME280;37844;57.126;24.288;2023-01-31T00:53:36;98954.50;;;2.08;100.00
51781;BME280;37844;57.126;24.288;2023-01-31T00:56:11;98951.06;;;2.06;100.00
51781;BME280;37844;57.126;24.288;2023-01-31T00:58:38;98955.25;;;2.03;100.00
51781;BME280;37844;57.126;24.288;2023-01-31T01:01:08;98960.03;;;1.87;100.00
51781;BME280;37844;57.126;24.288;2023-01-31T01:03:34;98960.84;;;1.85;100.00
51781;BME280;37844;57.126;24.288;2023-01-31T01:06:00;98970.16;;;1.84;100.00
51781;BME280;37844;57.126;24.288;2023-01-31T01:08:27;98971.03;;;1.86;100.00
51781;BME280;37844;57.126;24.288;2023-01-31T01:10:52;98995.81;;;1.98;100.00
51781;BME280;37844;57.126;24.288;2023-01-31T01:13:18;98989.03;;;1.97;100.00
51781;BME280;37844;57.126;24.288;2023-01-31T01:15:43;99002.69;;;2.02;100.00
51781;BME280;37844;57.126;24.288;2023-01-31T01:18:09;98990.81;;;2.03;100.00
51781;BME280;37844;57.126;24.288;2023-01-31T01:20:35;98990.91;;;2.07;100.00
51781;BME280;37844;57.126;24.288;2023-01-31T01:23:00;99004.59;;;2.14;100.00
51781;BME280;37844;57.126;24.288;2023-01-31T01:25:26;99011.25;;;2.07;100.00
51781;BME280;37844;57.126;24.288;2023-01-31T01:27:51;99016.28;;;2.06;100.00
51781;BME280;37844;57.126;24.288;2023-01-31T01:30:17;99029.06;;;2.09;100.00
51781;BME280;37844;57.126;24.288;2023-01-31T01:32:43;99011.09;;;2.00;100.00
51781;BME280;37844;57.126;24.288;2023-01-31T01:35:08;99029.94;;;2.11;100.00
51781;BME280;37844;57.126;24.288;2023-01-31T01:37:34;99038.34;;;2.08;100.00
51781;BME280;37844;57.126;24.288;2023-01-31T01:39:59;99041.81;;;2.12;100.00
51781;BME280;37844;57.126;24.288;2023-01-31T01:42:25;99037.63;;;2.14;100.00
51781;BME280;37844;57.126;24.288;2023-01-31T01:50:09;99055.53;;;2.19;100.00
51781;BME280;37844;57.126;24.288;2023-01-31T01:52:46;99057.28;;;2.23;100.00
51781;BME280;37844;57.126;24.288;2023-01-31T01:55:20;99055.34;;;2.09;100.00
51781;BME280;37844;57.126;24.288;2023-01-31T01:57:49;99046.59;;;1.95;100.00
51781;BME280;37844;57.126;24.288;2023-01-31T02:00:22;99060.34;;;2.06;100.00
51781;BME280;37844;57.126;24.288;2023-01-31T02:02:50;99056.56;;;1.86;100.00
51781;BME280;37844;57.126;24.288;2023-01-31T02:05:25;99068.31;;;1.81;100.00
51781;BME280;37844;57.126;24.288;2023-01-31T02:07:53;99063.00;;;1.70;100.00
51781;BME280;37844;57.126;24.288;2023-01-31T02:10:27;99081.72;;;1.75;100.00
51781;BME280;37844;57.126;24.288;2023-01-31T02:12:54;99088.53;;;1.78;100.00
51781;BME280;37844;57.126;24.288;2023-01-31T02:15:21;99088.44;;;1.72;100.00
51781;BME280;37844;57.126;24.288;2023-01-31T02:17:47;99086.66;;;1.67;100.00
51781;BME280;37844;57.126;24.288;2023-01-31T02:23:12;99114.53;;;1.64;100.00
51781;BME280;37844;57.126;24.288;2023-01-31T02:34:11;99134.31;;;1.79;100.00
51781;BME280;37844;57.126;24.288;2023-01-31T02:36:51;99131.81;;;1.81;100.00
51781;BME280;37844;57.126;24.288;2023-01-31T02:42:09;99147.19;;;1.87;100.00
51781;BME280;37844;57.126;24.288;2023-01-31T02:55:31;99157.13;;;1.78;100.00
51781;BME280;37844;57.126;24.288;2023-01-31T02:58:18;99162.19;;;1.76;100.00
51781;BME280;37844;57.126;24.288;2023-01-31T03:00:45;99169.94;;;1.81;100.00
51781;BME280;37844;57.126;24.288;2023-01-31T03:03:18;99162.31;;;1.82;100.00
51781;BME280;37844;57.126;24.288;2023-01-31T03:06:07;99173.38;;;1.83;100.00
51781;BME280;37844;57.126;24.288;2023-01-31T03:08:34;99180.97;;;1.83;100.00
51781;BME280;37844;57.126;24.288;2023-01-31T03:11:03;99184.59;;;1.93;100.00
51781;BME280;37844;57.126;24.288;2023-01-31T03:16:27;99202.13;;;1.82;100.00
51781;BME280;37844;57.126;24.288;2023-01-31T03:19:30;99195.56;;;1.91;100.00
51781;BME280;37844;57.126;24.288;2023-01-31T03:22:06;99203.97;;;1.89;100.00
51781;BME280;37844;57.126;24.288;2023-01-31T03:24:35;99209.78;;;1.83;100.00
51781;BME280;37844;57.126;24.288;2023-01-31T03:27:01;99226.16;;;1.96;100.00
51781;BME280;37844;57.126;24.288;2023-01-31T03:29:28;99214.19;;;1.92;100.00
51781;BME280;37844;57.126;24.288;2023-01-31T03:32:05;99227.56;;;1.83;100.00
51781;BME280;37844;57.126;24.288;2023-01-31T03:34:31;99235.03;;;1.77;100.00
51781;BME280;37844;57.126;24.288;2023-01-31T03:40:03;99236.31;;;1.96;100.00
51781;BME280;37844;57.126;24.288;2023-01-31T03:42:56;99239.47;;;1.86;100.00
51781;BME280;37844;57.126;24.288;2023-01-31T03:45:39;99237.03;;;1.90;100.00
51781;BME280;37844;57.126;24.288;2023-01-31T03:48:07;99241.19;;;1.87;100.00
51781;BME280;37844;57.126;24.288;2023-01-31T03:50:59;99238.84;;;1.95;100.00
51781;BME280;37844;57.126;24.288;2023-01-31T03:53:33;99242.19;;;1.94;100.00
51781;BME280;37844;57.126;24.288;2023-01-31T03:56:00;99262.56;;;1.95;100.00
51781;BME280;37844;57.126;24.288;2023-01-31T03:58:34;99256.53;;;1.91;100.00
51781;BME280;37844;57.126;24.288;2023-01-31T04:01:04;99267.66;;;1.95;100.00
51781;BME280;37844;57.126;24.288;2023-01-31T04:03:41;99277.53;;;1.84;100.00
51781;BME280;37844;57.126;24.288;2023-01-31T04:06:09;99280.06;;;1.83;100.00
51781;BME280;37844;57.126;24.288;2023-01-31T04:08:35;99283.63;;;1.91;100.00
51781;BME280;37844;57.126;24.288;2023-01-31T04:11:08;99246.94;;;1.80;100.00
51781;BME280;37844;57.126;24.288;2023-01-31T04:13:34;99284.88;;;2.08;100.00
51781;BME280;37844;57.126;24.288;2023-01-31T04:16:01;99294.06;;;2.02;100.00
51781;BME280;37844;57.126;24.288;2023-01-31T04:18:26;99306.03;;;2.07;100.00
51781;BME280;37844;57.126;24.288;2023-01-31T04:20:52;99313.72;;;2.10;100.00
51781;BME280;37844;57.126;24.288;2023-01-31T04:23:18;99299.16;;;2.02;100.00
51781;BME280;37844;57.126;24.288;2023-01-31T04:25:44;99308.44;;;2.01;100.00
51781;BME280;37844;57.126;24.288;2023-01-31T04:28:09;99312.84;;;2.08;100.00
51781;BME280;37844;57.126;24.288;2023-01-31T04:30:35;99290.06;;;2.13;100.00
51781;BME280;37844;57.126;24.288;2023-01-31T04:33:00;99297.28;;;1.95;100.00
51781;BME280;37844;57.126;24.288;2023-01-31T04:35:26;99311.66;;;1.94;100.00
51781;BME280;37844;57.126;24.288;2023-01-31T04:37:51;99318.59;;;2.00;100.00
51781;BME280;37844;57.126;24.288;2023-01-31T04:40:17;99327.09;;;2.02;100.00
51781;BME280;37844;57.126;24.288;2023-01-31T04:42:43;99332.44;;;2.12;100.00
51781;BME280;37844;57.126;24.288;2023-01-31T04:45:09;99330.50;;;2.04;100.00
51781;BME280;37844;57.126;24.288;2023-01-31T04:47:34;99329.72;;;2.06;100.00
51781;BME280;37844;57.126;24.288;2023-01-31T04:50:00;99335.47;;;1.99;100.00
51781;BME280;37844;57.126;24.288;2023-01-31T04:52:25;99337.34;;;2.05;100.00
51781;BME280;37844;57.126;24.288;2023-01-31T04:54:51;99340.00;;;2.09;100.00
51781;BME280;37844;57.126;24.288;2023-01-31T04:57:16;99339.03;;;2.06;100.00
51781;BME280;37844;57.126;24.288;2023-01-31T04:59:49;99344.00;;;2.01;100.00
51781;BME280;37844;57.126;24.288;2023-01-31T05:02:29;99347.38;;;2.00;100.00
51781;BME280;37844;57.126;24.288;2023-01-31T05:04:55;99352.41;;;1.99;100.00
51781;BME280;37844;57.126;24.288;2023-01-31T05:07:20;99352.28;;;1.93;100.00
51781;BME280;37844;57.126;24.288;2023-01-31T05:09:49;99358.16;;;1.90;100.00
51781;BME280;37844;57.126;24.288;2023-01-31T05:12:14;99364.09;;;1.90;100.00
51781;BME280;37844;57.126;24.288;2023-01-31T05:14:40;99358.66;;;1.77;100.00
51781;BME280;37844;57.126;24.288;2023-01-31T05:17:05;99370.69;;;1.84;100.00
51781;BME280;37844;57.126;24.288;2023-01-31T05:19:30;99377.56;;;1.88;100.00
51781;BME280;37844;57.126;24.288;2023-01-31T05:21:56;99381.88;;;1.92;100.00
51781;BME280;37844;57.126;24.288;2023-01-31T05:24:27;99390.16;;;1.83;100.00
51781;BME280;37844;57.126;24.288;2023-01-31T05:26:53;99389.44;;;1.89;100.00
51781;BME280;37844;57.126;24.288;2023-01-31T05:29:29;99378.19;;;1.79;100.00
51781;BME280;37844;57.126;24.288;2023-01-31T05:31:57;99385.75;;;1.78;100.00
51781;BME280;37844;57.126;24.288;2023-01-31T05:34:23;99406.97;;;1.78;100.00
51781;BME280;37844;57.126;24.288;2023-01-31T05:36:50;99409.34;;;1.72;100.00
51781;BME280;37844;57.126;24.288;2023-01-31T05:39:16;99414.34;;;1.70;100.00
51781;BME280;37844;57.126;24.288;2023-01-31T05:41:41;99416.03;;;1.70;100.00
51781;BME280;37844;57.126;24.288;2023-01-31T05:44:07;99411.81;;;1.70;100.00
51781;BME280;37844;57.126;24.288;2023-01-31T05:46:33;99421.19;;;1.72;100.00
51781;BME280;37844;57.126;24.288;2023-01-31T05:48:59;99424.56;;;1.72;100.00
51781;BME280;37844;57.126;24.288;2023-01-31T05:51:24;99429.72;;;1.75;100.00
51781;BME280;37844;57.126;24.288;2023-01-31T05:53:50;99426.19;;;1.70;100.00
51781;BME280;37844;57.126;24.288;2023-01-31T05:56:16;99428.75;;;1.70;100.00
51781;BME280;37844;57.126;24.288;2023-01-31T05:58:42;99425.44;;;1.73;100.00
51781;BME280;37844;57.126;24.288;2023-01-31T06:01:07;99438.44;;;1.83;100.00
51781;BME280;37844;57.126;24.288;2023-01-31T06:03:33;99442.69;;;1.84;100.00
51781;BME280;37844;57.126;24.288;2023-01-31T06:05:59;99445.09;;;1.80;100.00
51781;BME280;37844;57.126;24.288;2023-01-31T06:08:24;99437.56;;;1.83;100.00
51781;BME280;37844;57.126;24.288;2023-01-31T06:10:50;99455.56;;;1.92;100.00
51781;BME280;37844;57.126;24.288;2023-01-31T06:13:15;99442.72;;;1.86;100.00
51781;BME280;37844;57.126;24.288;2023-01-31T06:15:44;99456.34;;;1.88;100.00
51781;BME280;37844;57.126;24.288;2023-01-31T06:18:10;99460.72;;;1.94;100.00
51781;BME280;37844;57.126;24.288;2023-01-31T06:20:36;99465.78;;;1.94;100.00
51781;BME280;37844;57.126;24.288;2023-01-31T06:23:03;99457.25;;;1.90;100.00
51781;BME280;37844;57.126;24.288;2023-01-31T06:25:29;99481.13;;;1.97;100.00
51781;BME280;37844;57.126;24.288;2023-01-31T06:27:55;99481.22;;;2.00;100.00
51781;BME280;37844;57.126;24.288;2023-01-31T06:30:21;99476.91;;;1.97;100.00
51781;BME280;37844;57.126;24.288;2023-01-31T06:32:47;99490.63;;;2.04;100.00
51781;BME280;37844;57.126;24.288;2023-01-31T06:35:12;99498.31;;;2.05;100.00
51781;BME280;37844;57.126;24.288;2023-01-31T06:37:38;99504.16;;;2.03;100.00
51781;BME280;37844;57.126;24.288;2023-01-31T06:40:03;99508.66;;;2.11;100.00
51781;BME280;37844;57.126;24.288;2023-01-31T06:42:29;99506.97;;;2.12;100.00
51781;BME280;37844;57.126;24.288;2023-01-31T06:44:55;99514.59;;;2.13;100.00
51781;BME280;37844;57.126;24.288;2023-01-31T06:47:20;99519.50;;;2.06;100.00
51781;BME280;37844;57.126;24.288;2023-01-31T06:49:46;99525.56;;;2.11;100.00
51781;BME280;37844;57.126;24.288;2023-01-31T06:52:11;99528.88;;;2.08;100.00
51781;BME280;37844;57.126;24.288;2023-01-31T06:54:37;99525.97;;;1.95;100.00
51781;BME280;37844;57.126;24.288;2023-01-31T06:57:02;99531.25;;;2.02;100.00
51781;BME280;37844;57.126;24.288;2023-01-31T06:59:28;99529.44;;;1.98;100.00
51781;BME280;37844;57.126;24.288;2023-01-31T07:01:53;99535.44;;;2.00;100.00
51781;BME280;37844;57.126;24.288;2023-01-31T07:04:19;99538.03;;;2.02;100.00
51781;BME280;37844;57.126;24.288;2023-01-31T07:06:44;99538.75;;;1.98;100.00
51781;BME280;37844;57.126;24.288;2023-01-31T07:09:10;99548.19;;;2.02;100.00
51781;BME280;37844;57.126;24.288;2023-01-31T07:11:36;99535.38;;;1.97;100.00
51781;BME280;37844;57.126;24.288;2023-01-31T07:14:02;99551.50;;;1.99;100.00
51781;BME280;37844;57.126;24.288;2023-01-31T07:16:28;99563.66;;;2.09;100.00
51781;BME280;37844;57.126;24.288;2023-01-31T07:18:54;99570.94;;;1.97;100.00
51781;BME280;37844;57.126;24.288;2023-01-31T07:21:23;99578.66;;;2.00;100.00
51781;BME280;37844;57.126;24.288;2023-01-31T07:23:50;99570.13;;;1.98;100.00
51781;BME280;37844;57.126;24.288;2023-01-31T07:26:16;99577.00;;;2.02;100.00
51781;BME280;37844;57.126;24.288;2023-01-31T07:28:41;99585.69;;;2.10;100.00
51781;BME280;37844;57.126;24.288;2023-01-31T07:31:11;99594.28;;;2.14;100.00
51781;BME280;37844;57.126;24.288;2023-01-31T07:33:38;99582.50;;;2.18;100.00
51781;BME280;37844;57.126;24.288;2023-01-31T07:36:08;99602.97;;;2.21;100.00
51781;BME280;37844;57.126;24.288;2023-01-31T07:38:36;99604.06;;;2.30;100.00
51781;BME280;37844;57.126;24.288;2023-01-31T07:41:03;99614.44;;;2.38;100.00
51781;BME280;37844;57.126;24.288;2023-01-31T07:43:29;99605.13;;;2.70;100.00
51781;BME280;37844;57.126;24.288;2023-01-31T07:45:55;99598.16;;;3.31;100.00
51781;BME280;37844;57.126;24.288;2023-01-31T07:48:20;99598.31;;;3.77;100.00
51781;BME280;37844;57.126;24.288;2023-01-31T07:51:06;99597.78;;;4.33;100.00
51781;BME280;37844;57.126;24.288;2023-01-31T07:53:34;99606.19;;;4.73;100.00
51781;BME280;37844;57.126;24.288;2023-01-31T07:56:10;99601.66;;;5.06;100.00
51781;BME280;37844;57.126;24.288;2023-01-31T07:58:37;99604.38;;;5.16;100.00
51781;BME280;37844;57.126;24.288;2023-01-31T08:01:03;99603.22;;;5.51;100.00
51781;BME280;37844;57.126;24.288;2023-01-31T08:03:47;99608.94;;;5.35;100.00
51781;BME280;37844;57.126;24.288;2023-01-31T08:06:13;99601.28;;;4.85;100.00
51781;BME280;37844;57.126;24.288;2023-01-31T08:08:43;99608.44;;;4.56;100.00
51781;BME280;37844;57.126;24.288;2023-01-31T08:11:11;99623.97;;;4.24;100.00
51781;BME280;37844;57.126;24.288;2023-01-31T08:13:38;99647.84;;;3.88;100.00
51781;BME280;37844;57.126;24.288;2023-01-31T08:16:05;99649.09;;;3.68;100.00
51781;BME280;37844;57.126;24.288;2023-01-31T08:18:31;99653.25;;;3.64;100.00
51781;BME280;37844;57.126;24.288;2023-01-31T08:20:57;99647.31;;;3.65;100.00
51781;BME280;37844;57.126;24.288;2023-01-31T08:23:23;99648.75;;;3.52;100.00
51781;BME280;37844;57.126;24.288;2023-01-31T08:25:49;99659.66;;;3.48;100.00
51781;BME280;37844;57.126;24.288;2023-01-31T08:28:15;99660.78;;;3.59;100.00
51781;BME280;37844;57.126;24.288;2023-01-31T08:30:41;99669.16;;;3.54;100.00
51781;BME280;37844;57.126;24.288;2023-01-31T08:33:09;99654.56;;;3.47;100.00
51781;BME280;37844;57.126;24.288;2023-01-31T08:35:35;99671.19;;;3.32;100.00
51781;BME280;37844;57.126;24.288;2023-01-31T08:38:01;99668.50;;;3.26;100.00
51781;BME280;37844;57.126;24.288;2023-01-31T08:40:26;99676.34;;;3.35;100.00
51781;BME280;37844;57.126;24.288;2023-01-31T08:42:59;99679.56;;;3.28;100.00
51781;BME280;37844;57.126;24.288;2023-01-31T08:45:26;99674.38;;;3.24;100.00
51781;BME280;37844;57.126;24.288;2023-01-31T08:47:55;99680.31;;;3.24;100.00
51781;BME280;37844;57.126;24.288;2023-01-31T08:50:22;99672.78;;;3.29;100.00
51781;BME280;37844;57.126;24.288;2023-01-31T08:52:58;99675.28;;;3.26;100.00
51781;BME280;37844;57.126;24.288;2023-01-31T08:55:24;99679.59;;;3.30;100.00
51781;BME280;37844;57.126;24.288;2023-01-31T08:57:51;99686.00;;;3.49;100.00
51781;BME280;37844;57.126;24.288;2023-01-31T09:00:17;99687.41;;;3.71;100.00
51781;BME280;37844;57.126;24.288;2023-01-31T09:02:43;99692.50;;;3.71;100.00
51781;BME280;37844;57.126;24.288;2023-01-31T09:05:24;99705.78;;;3.95;100.00
51781;BME280;37844;57.126;24.288;2023-01-31T09:07:50;99698.31;;;4.03;100.00
51781;BME280;37844;57.126;24.288;2023-01-31T09:10:19;99701.66;;;3.99;100.00
51781;BME280;37844;57.126;24.288;2023-01-31T09:12:46;99699.41;;;3.76;100.00
51781;BME280;37844;57.126;24.288;2023-01-31T09:15:12;99699.41;;;3.76;100.00
51781;BME280;37844;57.126;24.288;2023-01-31T09:17:38;99703.72;;;3.79;100.00
51781;BME280;37844;57.126;24.288;2023-01-31T09:20:05;99702.56;;;4.02;100.00
51781;BME280;37844;57.126;24.288;2023-01-31T09:22:33;99700.06;;;4.45;100.00
51781;BME280;37844;57.126;24.288;2023-01-31T09:24:59;99696.97;;;5.04;100.00
51781;BME280;37844;57.126;24.288;2023-01-31T09:27:26;99694.91;;;5.85;100.00
51781;BME280;37844;57.126;24.288;2023-01-31T09:29:51;99698.81;;;6.18;100.00
51781;BME280;37844;57.126;24.288;2023-01-31T09:32:17;99712.81;;;5.85;100.00
51781;BME280;37844;57.126;24.288;2023-01-31T09:34:44;99712.63;;;5.74;100.00
51781;BME280;37844;57.126;24.288;2023-01-31T09:37:11;99716.47;;;5.47;100.00
51781;BME280;37844;57.126;24.288;2023-01-31T09:39:36;99719.91;;;5.02;100.00
51781;BME280;37844;57.126;24.288;2023-01-31T09:42:16;99728.06;;;4.83;100.00
51781;BME280;37844;57.126;24.288;2023-01-31T09:44:44;99727.84;;;4.72;100.00
51781;BME280;37844;57.126;24.288;2023-01-31T09:47:30;99721.31;;;4.44;100.00
51781;BME280;37844;57.126;24.288;2023-01-31T09:50:05;99728.78;;;4.35;100.00
51781;BME280;37844;57.126;24.288;2023-01-31T09:52:32;99738.69;;;4.21;100.00
51781;BME280;37844;57.126;24.288;2023-01-31T09:54:58;99737.63;;;4.11;100.00
51781;BME280;37844;57.126;24.288;2023-01-31T09:57:33;99743.47;;;4.07;100.00
51781;BME280;37844;57.126;24.288;2023-01-31T10:00:32;99754.91;;;3.88;100.00
51781;BME280;37844;57.126;24.288;2023-01-31T10:03:34;99747.31;;;3.90;100.00
51781;BME280;37844;57.126;24.288;2023-01-31T10:06:23;99753.09;;;3.82;100.00
51781;BME280;37844;57.126;24.288;2023-01-31T10:08:55;99757.25;;;3.79;100.00
51781;BME280;37844;57.126;24.288;2023-01-31T10:11:36;99756.31;;;3.75;100.00
51781;BME280;37844;57.126;24.288;2023-01-31T10:14:36;99758.25;;;3.86;100.00
51781;BME280;37844;57.126;24.288;2023-01-31T10:17:24;99757.50;;;3.90;100.00
51781;BME280;37844;57.126;24.288;2023-01-31T10:22:51;99760.66;;;3.79;100.00
51781;BME280;37844;57.126;24.288;2023-01-31T10:25:26;99764.09;;;3.80;100.00
51781;BME280;37844;57.126;24.288;2023-01-31T10:28:16;99772.69;;;3.85;100.00
51781;BME280;37844;57.126;24.288;2023-01-31T10:30:56;99772.69;;;3.85;100.00
51781;BME280;37844;57.126;24.288;2023-01-31T10:35:49;99779.41;;;3.81;100.00
51781;BME280;37844;57.126;24.288;2023-01-31T10:38:23;99780.22;;;3.80;100.00
51781;BME280;37844;57.126;24.288;2023-01-31T10:41:05;99778.84;;;3.60;100.00
51781;BME280;37844;57.126;24.288;2023-01-31T10:43:38;99771.38;;;3.66;100.00
51781;BME280;37844;57.126;24.288;2023-01-31T10:46:10;99779.69;;;3.59;100.00
51781;BME280;37844;57.126;24.288;2023-01-31T10:48:36;99777.09;;;3.57;100.00
51781;BME280;37844;57.126;24.288;2023-01-31T10:58:48;99774.84;;;3.36;100.00
51781;BME280;37844;57.126;24.288;2023-01-31T11:01:14;99791.47;;;3.54;100.00
51781;BME280;37844;57.126;24.288;2023-01-31T11:03:50;99786.31;;;3.52;100.00
51781;BME280;37844;57.126;24.288;2023-01-31T11:06:16;99791.78;;;3.68;100.00
51781;BME280;37844;57.126;24.288;2023-01-31T11:09:02;99785.69;;;3.61;100.00
51781;BME280;37844;57.126;24.288;2023-01-31T11:11:28;99792.81;;;3.74;100.00
51781;BME280;37844;57.126;24.288;2023-01-31T11:14:05;99803.00;;;3.74;100.00
51781;BME280;37844;57.126;24.288;2023-01-31T11:16:38;99795.00;;;3.60;100.00
51781;BME280;37844;57.126;24.288;2023-01-31T11:19:53;99795.78;;;3.56;100.00
51781;BME280;37844;57.126;24.288;2023-01-31T11:24:49;99789.88;;;3.59;100.00
51781;BME280;37844;57.126;24.288;2023-01-31T11:30:00;99788.25;;;3.63;100.00
51781;BME280;37844;57.126;24.288;2023-01-31T11:32:30;99768.78;;;3.65;100.00
51781;BME280;37844;57.126;24.288;2023-01-31T11:35:05;99790.31;;;3.76;100.00
51781;BME280;37844;57.126;24.288;2023-01-31T11:37:32;99792.91;;;3.77;100.00
51781;BME280;37844;57.126;24.288;2023-01-31T11:40:15;99791.03;;;3.70;100.00
51781;BME280;37844;57.126;24.288;2023-01-31T11:42:54;99781.88;;;3.78;100.00
51781;BME280;37844;57.126;24.288;2023-01-31T11:45:22;99782.00;;;3.83;100.00
51781;BME280;37844;57.126;24.288;2023-01-31T11:48:14;99776.41;;;3.63;100.00
51781;BME280;37844;57.126;24.288;2023-01-31T11:50:44;99791.06;;;3.72;100.00
51781;BME280;37844;57.126;24.288;2023-01-31T11:53:23;99780.84;;;3.72;100.00
51781;BME280;37844;57.126;24.288;2023-01-31T11:55:51;99792.88;;;3.76;100.00
51781;BME280;37844;57.126;24.288;2023-01-31T11:58:19;99785.56;;;3.90;100.00
51781;BME280;37844;57.126;24.288;2023-01-31T12:00:53;99783.63;;;4.16;100.00
51781;BME280;37844;57.126;24.288;2023-01-31T12:03:20;99793.31;;;4.31;100.00
51781;BME280;37844;57.126;24.288;2023-01-31T12:05:50;99796.03;;;4.38;100.00
51781;BME280;37844;57.126;24.288;2023-01-31T12:08:38;99797.25;;;4.54;100.00
51781;BME280;37844;57.126;24.288;2023-01-31T12:11:25;99799.94;;;4.60;100.00
51781;BME280;37844;57.126;24.288;2023-01-31T12:13:53;99799.09;;;4.61;100.00
51781;BME280;37844;57.126;24.288;2023-01-31T12:16:26;99800.81;;;4.62;100.00
51781;BME280;37844;57.126;24.288;2023-01-31T12:24:47;99792.66;;;4.79;100.00
51781;BME280;37844;57.126;24.288;2023-01-31T12:46:16;99788.34;;;4.00;100.00
51781;BME280;37844;57.126;24.288;2023-01-31T12:51:23;99787.72;;;4.09;100.00
51781;BME280;37844;57.126;24.288;2023-01-31T13:14:01;99793.09;;;3.87;100.00
51781;BME280;37844;57.126;24.288;2023-01-31T13:16:34;99793.38;;;3.97;100.00
51781;BME280;37844;57.126;24.288;2023-01-31T13:19:04;99790.16;;;4.04;100.00
51781;BME280;37844;57.126;24.288;2023-01-31T13:21:35;99794.47;;;4.07;100.00
51781;BME280;37844;57.126;24.288;2023-01-31T13:26:31;99797.00;;;4.07;100.00
51781;BME280;37844;57.126;24.288;2023-01-31T13:29:11;99789.19;;;4.01;100.00
51781;BME280;37844;57.126;24.288;2023-01-31T13:31:45;99785.00;;;4.03;100.00
51781;BME280;37844;57.126;24.288;2023-01-31T13:34:17;99788.41;;;4.02;100.00
51781;BME280;37844;57.126;24.288;2023-01-31T13:36:51;99784.16;;;4.02;100.00
51781;BME280;37844;57.126;24.288;2023-01-31T13:39:23;99790.94;;;4.02;100.00
51781;BME280;37844;57.126;24.288;2023-01-31T13:41:51;99800.09;;;3.94;100.00
51781;BME280;37844;57.126;24.288;2023-01-31T13:44:17;99799.38;;;3.99;100.00
51781;BME280;37844;57.126;24.288;2023-01-31T13:51:57;99801.59;;;3.86;100.00
51781;BME280;37844;57.126;24.288;2023-01-31T13:54:34;99807.31;;;3.77;100.00
51781;BME280;37844;57.126;24.288;2023-01-31T13:57:02;99783.81;;;3.54;100.00
51781;BME280;37844;57.126;24.288;2023-01-31T13:59:31;99806.88;;;3.60;100.00
51781;BME280;37844;57.126;24.288;2023-01-31T14:01:59;99797.28;;;3.50;100.00
51781;BME280;37844;57.126;24.288;2023-01-31T14:04:32;99798.09;;;3.49;100.00
51781;BME280;37844;57.126;24.288;2023-01-31T14:09:30;99794.59;;;3.12;100.00
51781;BME280;37844;57.126;24.288;2023-01-31T14:11:58;99812.84;;;2.97;100.00
51781;BME280;37844;57.126;24.288;2023-01-31T14:22:18;99806.75;;;2.92;100.00
51781;BME280;37844;57.126;24.288;2023-01-31T14:29:48;99800.03;;;2.65;100.00
51781;BME280;37844;57.126;24.288;2023-01-31T14:32:29;99800.22;;;2.71;100.00
51781;BME280;37844;57.126;24.288;2023-01-31T14:34:55;99802.84;;;2.73;100.00
51781;BME280;37844;57.126;24.288;2023-01-31T14:50:53;99804.94;;;2.30;100.00
51781;BME280;37844;57.126;24.288;2023-01-31T14:53:30;99801.34;;;2.24;100.00
51781;BME280;37844;57.126;24.288;2023-01-31T14:58:52;99805.69;;;2.01;100.00
51781;BME280;37844;57.126;24.288;2023-01-31T15:01:20;99800.97;;;2.11;100.00
51781;BME280;37844;57.126;24.288;2023-01-31T15:03:52;99802.00;;;1.91;100.00
51781;BME280;37844;57.126;24.288;2023-01-31T15:06:31;99794.91;;;1.81;100.00
51781;BME280;37844;57.126;24.288;2023-01-31T15:09:33;99797.22;;;1.75;100.00
51781;BME280;37844;57.126;24.288;2023-01-31T15:11:59;99792.06;;;1.72;100.00
51781;BME280;37844;57.126;24.288;2023-01-31T15:19:30;99802.06;;;1.67;100.00
51781;BME280;37844;57.126;24.288;2023-01-31T15:22:06;99798.59;;;1.65;100.00
51781;BME280;37844;57.126;24.288;2023-01-31T15:24:39;99797.88;;;1.43;100.00
51781;BME280;37844;57.126;24.288;2023-01-31T15:27:20;99814.22;;;1.52;100.00
51781;BME280;37844;57.126;24.288;2023-01-31T15:32:35;99815.81;;;1.48;100.00
51781;BME280;37844;57.126;24.288;2023-01-31T15:35:22;99813.88;;;1.41;100.00